sensor_id;sensor_type;location;lat;lon;timestamp;temperature;humidity
70708;SHT30;58277;47.316;18.908;2022-08-05T00:00:27;23.55;56.82
70708;SHT30;58277;47.316;18.908;2022-08-05T00:02:50;23.52;57.19
70708;SHT30;58277;47.316;18.908;2022-08-05T00:05:13;23.37;58.10
70708;SHT30;58277;47.316;18.908;2022-08-05T00:07:56;23.35;58.73
70708;SHT30;58277;47.316;18.908;2022-08-05T00:10:22;23.41;58.76
70708;SHT30;58277;47.316;18.908;2022-08-05T00:12:48;23.39;59.11
70708;SHT30;58277;47.316;18.908;2022-08-05T00:15:18;23.45;59.32
70708;SHT30;58277;47.316;18.908;2022-08-05T00:18:01;23.41;59.73
70708;SHT30;58277;47.316;18.908;2022-08-05T00:20:24;23.32;59.78
70708;SHT30;58277;47.316;18.908;2022-08-05T00:22:50;23.29;59.99
70708;SHT30;58277;47.316;18.908;2022-08-05T00:25:20;23.25;60.22
70708;SHT30;58277;47.316;18.908;2022-08-05T00:27:44;23.14;60.47
70708;SHT30;58277;47.316;18.908;2022-08-05T00:30:07;23.14;60.45
70708;SHT30;58277;47.316;18.908;2022-08-05T00:32:34;23.15;60.28
70708;SHT30;58277;47.316;18.908;2022-08-05T00:34:57;23.10;60.51
70708;SHT30;58277;47.316;18.908;2022-08-05T00:37:28;22.99;60.52
70708;SHT30;58277;47.316;18.908;2022-08-05T00:40:11;23.04;60.13
70708;SHT30;58277;47.316;18.908;2022-08-05T00:42:36;22.87;60.27
70708;SHT30;58277;47.316;18.908;2022-08-05T00:44:59;22.97;60.11
70708;SHT30;58277;47.316;18.908;2022-08-05T00:47:24;23.04;59.06
70708;SHT30;58277;47.316;18.908;2022-08-05T00:50:08;22.99;59.07
70708;SHT30;58277;47.316;18.908;2022-08-05T00:52:32;23.03;59.23
70708;SHT30;58277;47.316;18.908;2022-08-05T00:55:00;23.06;58.92
70708;SHT30;58277;47.316;18.908;2022-08-05T00:57:25;23.00;59.23
70708;SHT30;58277;47.316;18.908;2022-08-05T01:00:00;22.96;59.47
70708;SHT30;58277;47.316;18.908;2022-08-05T01:02:25;23.01;59.18
70708;SHT30;58277;47.316;18.908;2022-08-05T01:04:48;23.00;59.20
70708;SHT30;58277;47.316;18.908;2022-08-05T01:07:12;22.97;59.40
70708;SHT30;58277;47.316;18.908;2022-08-05T01:09:39;22.93;59.50
70708;SHT30;58277;47.316;18.908;2022-08-05T01:12:06;22.84;58.44
70708;SHT30;58277;47.316;18.908;2022-08-05T01:14:56;22.79;58.41
70708;SHT30;58277;47.316;18.908;2022-08-05T01:17:34;22.84;58.81
70708;SHT30;58277;47.316;18.908;2022-08-05T01:20:12;22.86;58.66
70708;SHT30;58277;47.316;18.908;2022-08-05T01:31:36;22.82;58.00
70708;SHT30;58277;47.316;18.908;2022-08-05T01:34:22;22.74;58.06
70708;SHT30;58277;47.316;18.908;2022-08-05T01:37:01;22.70;57.67
70708;SHT30;58277;47.316;18.908;2022-08-05T01:39:25;22.74;57.46
70708;SHT30;58277;47.316;18.908;2022-08-05T01:42:12;22.69;57.64
70708;SHT30;58277;47.316;18.908;2022-08-05T01:44:37;22.70;57.82
70708;SHT30;58277;47.316;18.908;2022-08-05T01:47:01;22.67;57.76
70708;SHT30;58277;47.316;18.908;2022-08-05T01:49:29;22.66;57.61
70708;SHT30;58277;47.316;18.908;2022-08-05T01:52:14;22.66;57.68
70708;SHT30;58277;47.316;18.908;2022-08-05T01:55:01;22.64;57.83
70708;SHT30;58277;47.316;18.908;2022-08-05T01:57:47;22.59;58.31
70708;SHT30;58277;47.316;18.908;2022-08-05T02:00:35;22.63;58.17
70708;SHT30;58277;47.316;18.908;2022-08-05T02:03:20;22.55;58.85
70708;SHT30;58277;47.316;18.908;2022-08-05T02:05:53;22.52;59.00
70708;SHT30;58277;47.316;18.908;2022-08-05T02:08:22;22.52;58.87
70708;SHT30;58277;47.316;18.908;2022-08-05T02:10:58;22.55;58.71
70708;SHT30;58277;47.316;18.908;2022-08-05T02:13:32;22.49;58.94
70708;SHT30;58277;47.316;18.908;2022-08-05T02:16:22;22.56;58.54
70708;SHT30;58277;47.316;18.908;2022-08-05T02:18:55;22.59;57.85
70708;SHT30;58277;47.316;18.908;2022-08-05T02:21:30;22.53;57.75
70708;SHT30;58277;47.316;18.908;2022-08-05T02:24:10;22.48;57.91
70708;SHT30;58277;47.316;18.908;2022-08-05T02:26:50;22.53;57.48
70708;SHT30;58277;47.316;18.908;2022-08-05T02:29:20;22.55;57.69
70708;SHT30;58277;47.316;18.908;2022-08-05T02:32:05;22.51;57.93
70708;SHT30;58277;47.316;18.908;2022-08-05T02:34:31;22.45;58.24
70708;SHT30;58277;47.316;18.908;2022-08-05T02:37:00;22.45;58.30
70708;SHT30;58277;47.316;18.908;2022-08-05T02:39:28;22.46;58.61
70708;SHT30;58277;47.316;18.908;2022-08-05T02:41:56;22.42;58.96
70708;SHT30;58277;47.316;18.908;2022-08-05T02:44:24;22.41;59.22
70708;SHT30;58277;47.316;18.908;2022-08-05T02:46:48;22.34;59.63
70708;SHT30;58277;47.316;18.908;2022-08-05T02:49:22;22.25;60.28
70708;SHT30;58277;47.316;18.908;2022-08-05T02:51:47;22.16;60.29
70708;SHT30;58277;47.316;18.908;2022-08-05T02:54:26;22.11;60.29
70708;SHT30;58277;47.316;18.908;2022-08-05T02:56:58;22.12;60.14
70708;SHT30;58277;47.316;18.908;2022-08-05T02:59:23;22.19;60.14
70708;SHT30;58277;47.316;18.908;2022-08-05T03:01:49;22.16;60.26
70708;SHT30;58277;47.316;18.908;2022-08-05T03:04:13;22.18;60.17
70708;SHT30;58277;47.316;18.908;2022-08-05T03:06:37;22.26;59.82
70708;SHT30;58277;47.316;18.908;2022-08-05T03:09:21;22.19;60.19
70708;SHT30;58277;47.316;18.908;2022-08-05T03:11:58;22.19;60.35
70708;SHT30;58277;47.316;18.908;2022-08-05T03:14:23;22.07;60.60
70708;SHT30;58277;47.316;18.908;2022-08-05T03:16:47;21.95;60.38
70708;SHT30;58277;47.316;18.908;2022-08-05T03:19:13;21.86;60.45
70708;SHT30;58277;47.316;18.908;2022-08-05T03:21:55;21.83;60.16
70708;SHT30;58277;47.316;18.908;2022-08-05T03:24:19;21.78;59.79
70708;SHT30;58277;47.316;18.908;2022-08-05T03:26:51;21.86;60.02
70708;SHT30;58277;47.316;18.908;2022-08-05T03:29:14;21.84;59.37
70708;SHT30;58277;47.316;18.908;2022-08-05T03:31:39;21.83;59.37
70708;SHT30;58277;47.316;18.908;2022-08-05T03:34:21;21.83;59.25
70708;SHT30;58277;47.316;18.908;2022-08-05T03:36:45;21.87;59.18
70708;SHT30;58277;47.316;18.908;2022-08-05T03:39:08;21.90;59.00
70708;SHT30;58277;47.316;18.908;2022-08-05T03:41:41;21.93;58.41
70708;SHT30;58277;47.316;18.908;2022-08-05T03:44:08;21.97;58.07
70708;SHT30;58277;47.316;18.908;2022-08-05T03:46:33;21.91;58.04
70708;SHT30;58277;47.316;18.908;2022-08-05T03:48:57;21.95;57.67
70708;SHT30;58277;47.316;18.908;2022-08-05T03:51:25;21.93;57.77
70708;SHT30;58277;47.316;18.908;2022-08-05T03:54:17;21.93;57.33
70708;SHT30;58277;47.316;18.908;2022-08-05T03:57:03;21.98;57.13
70708;SHT30;58277;47.316;18.908;2022-08-05T03:59:56;22.07;56.96
70708;SHT30;58277;47.316;18.908;2022-08-05T04:02:26;22.16;56.24
70708;SHT30;58277;47.316;18.908;2022-08-05T04:05:08;22.19;56.07
70708;SHT30;58277;47.316;18.908;2022-08-05T04:07:32;22.19;55.21
70708;SHT30;58277;47.316;18.908;2022-08-05T04:10:16;22.21;54.72
70708;SHT30;58277;47.316;18.908;2022-08-05T04:12:39;22.32;55.20
70708;SHT30;58277;47.316;18.908;2022-08-05T04:15:01;22.38;54.61
70708;SHT30;58277;47.316;18.908;2022-08-05T04:17:26;22.48;55.03
70708;SHT30;58277;47.316;18.908;2022-08-05T04:20:17;22.52;54.76
70708;SHT30;58277;47.316;18.908;2022-08-05T04:22:41;22.52;54.08
70708;SHT30;58277;47.316;18.908;2022-08-05T04:25:04;22.56;54.18
70708;SHT30;58277;47.316;18.908;2022-08-05T04:27:26;22.60;53.54
70708;SHT30;58277;47.316;18.908;2022-08-05T04:30:05;22.76;53.31
70708;SHT30;58277;47.316;18.908;2022-08-05T04:32:29;22.76;53.34
70708;SHT30;58277;47.316;18.908;2022-08-05T04:34:57;22.94;53.36
70708;SHT30;58277;47.316;18.908;2022-08-05T04:37:20;23.17;52.66
70708;SHT30;58277;47.316;18.908;2022-08-05T04:40:04;23.32;52.55
70708;SHT30;58277;47.316;18.908;2022-08-05T04:42:26;23.31;51.71
70708;SHT30;58277;47.316;18.908;2022-08-05T04:44:49;23.34;51.13
70708;SHT30;58277;47.316;18.908;2022-08-05T04:47:11;23.35;51.16
70708;SHT30;58277;47.316;18.908;2022-08-05T04:49:41;23.21;51.58
70708;SHT30;58277;47.316;18.908;2022-08-05T04:52:24;23.22;52.07
70708;SHT30;58277;47.316;18.908;2022-08-05T04:54:49;23.31;51.86
70708;SHT30;58277;47.316;18.908;2022-08-05T04:57:11;23.35;52.06
70708;SHT30;58277;47.316;18.908;2022-08-05T04:59:34;23.41;51.93
70708;SHT30;58277;47.316;18.908;2022-08-05T05:02:00;23.44;51.56
70708;SHT30;58277;47.316;18.908;2022-08-05T05:04:43;23.49;50.89
70708;SHT30;58277;47.316;18.908;2022-08-05T05:07:11;23.69;50.81
70708;SHT30;58277;47.316;18.908;2022-08-05T05:09:38;23.79;51.00
70708;SHT30;58277;47.316;18.908;2022-08-05T05:12:02;23.62;50.90
70708;SHT30;58277;47.316;18.908;2022-08-05T05:14:24;23.73;51.82
70708;SHT30;58277;47.316;18.908;2022-08-05T05:16:53;23.61;51.32
70708;SHT30;58277;47.316;18.908;2022-08-05T05:19:16;23.76;51.46
70708;SHT30;58277;47.316;18.908;2022-08-05T05:25:14;23.83;51.21
70708;SHT30;58277;47.316;18.908;2022-08-05T05:27:39;23.89;51.46
70708;SHT30;58277;47.316;18.908;2022-08-05T05:30:15;23.89;51.33
70708;SHT30;58277;47.316;18.908;2022-08-05T05:32:54;24.12;52.20
70708;SHT30;58277;47.316;18.908;2022-08-05T05:35:17;24.25;51.88
70708;SHT30;58277;47.316;18.908;2022-08-05T05:37:55;24.31;51.46
70708;SHT30;58277;47.316;18.908;2022-08-05T05:40:24;24.51;52.03
70708;SHT30;58277;47.316;18.908;2022-08-05T05:42:49;24.47;49.60
70708;SHT30;58277;47.316;18.908;2022-08-05T05:45:13;24.71;50.00
70708;SHT30;58277;47.316;18.908;2022-08-05T05:47:35;24.71;49.50
70708;SHT30;58277;47.316;18.908;2022-08-05T05:50:18;24.76;49.59
70708;SHT30;58277;47.316;18.908;2022-08-05T05:52:42;24.78;48.91
70708;SHT30;58277;47.316;18.908;2022-08-05T05:55:10;25.00;48.63
70708;SHT30;58277;47.316;18.908;2022-08-05T05:57:36;25.06;49.54
70708;SHT30;58277;47.316;18.908;2022-08-05T06:00:18;25.26;48.55
70708;SHT30;58277;47.316;18.908;2022-08-05T06:02:41;25.33;48.70
70708;SHT30;58277;47.316;18.908;2022-08-05T06:05:08;25.60;46.85
70708;SHT30;58277;47.316;18.908;2022-08-05T06:07:38;25.64;45.98
70708;SHT30;58277;47.316;18.908;2022-08-05T06:10:04;25.77;46.56
70708;SHT30;58277;47.316;18.908;2022-08-05T06:12:33;25.85;46.85
70708;SHT30;58277;47.316;18.908;2022-08-05T06:15:04;26.01;45.93
70708;SHT30;58277;47.316;18.908;2022-08-05T06:17:29;25.99;46.64
70708;SHT30;58277;47.316;18.908;2022-08-05T06:19:52;26.09;46.68
70708;SHT30;58277;47.316;18.908;2022-08-05T06:22:26;26.30;45.66
70708;SHT30;58277;47.316;18.908;2022-08-05T06:24:49;26.40;44.29
70708;SHT30;58277;47.316;18.908;2022-08-05T06:27:12;26.28;44.48
70708;SHT30;58277;47.316;18.908;2022-08-05T06:29:55;26.37;45.21
70708;SHT30;58277;47.316;18.908;2022-08-05T06:32:29;26.16;44.16
70708;SHT30;58277;47.316;18.908;2022-08-05T06:34:53;26.28;44.67
70708;SHT30;58277;47.316;18.908;2022-08-05T06:37:18;26.36;45.20
70708;SHT30;58277;47.316;18.908;2022-08-05T06:40:01;26.44;42.96
70708;SHT30;58277;47.316;18.908;2022-08-05T06:42:23;26.51;43.34
70708;SHT30;58277;47.316;18.908;2022-08-05T06:44:46;26.70;44.34
70708;SHT30;58277;47.316;18.908;2022-08-05T06:47:10;26.95;42.57
70708;SHT30;58277;47.316;18.908;2022-08-05T06:49:53;27.15;42.34
70708;SHT30;58277;47.316;18.908;2022-08-05T06:52:23;27.26;42.63
70708;SHT30;58277;47.316;18.908;2022-08-05T06:54:59;27.38;42.41
70708;SHT30;58277;47.316;18.908;2022-08-05T06:57:24;27.43;42.06
70708;SHT30;58277;47.316;18.908;2022-08-05T07:00:07;27.57;42.32
70708;SHT30;58277;47.316;18.908;2022-08-05T07:02:31;27.60;41.41
70708;SHT30;58277;47.316;18.908;2022-08-05T07:04:56;27.49;41.10
70708;SHT30;58277;47.316;18.908;2022-08-05T07:07:19;27.57;41.24
70708;SHT30;58277;47.316;18.908;2022-08-05T07:10:04;27.67;41.42
70708;SHT30;58277;47.316;18.908;2022-08-05T07:12:28;27.81;42.45
70708;SHT30;58277;47.316;18.908;2022-08-05T07:15:10;28.00;40.43
70708;SHT30;58277;47.316;18.908;2022-08-05T07:18:11;28.05;41.27
70708;SHT30;58277;47.316;18.908;2022-08-05T07:20:48;28.14;40.66
70708;SHT30;58277;47.316;18.908;2022-08-05T07:23:11;28.19;40.46
70708;SHT30;58277;47.316;18.908;2022-08-05T07:25:47;28.28;40.60
70708;SHT30;58277;47.316;18.908;2022-08-05T07:28:18;28.44;39.63
70708;SHT30;58277;47.316;18.908;2022-08-05T07:30:40;28.45;38.59
70708;SHT30;58277;47.316;18.908;2022-08-05T07:33:06;28.46;39.13
70708;SHT30;58277;47.316;18.908;2022-08-05T07:35:31;28.53;39.43
70708;SHT30;58277;47.316;18.908;2022-08-05T07:38:16;28.75;40.06
70708;SHT30;58277;47.316;18.908;2022-08-05T07:40:56;28.94;39.05
70708;SHT30;58277;47.316;18.908;2022-08-05T07:43:27;29.07;38.42
70708;SHT30;58277;47.316;18.908;2022-08-05T07:45:50;29.14;38.51
70708;SHT30;58277;47.316;18.908;2022-08-05T07:48:19;29.30;38.02
70708;SHT30;58277;47.316;18.908;2022-08-05T07:51:02;29.50;36.51
70708;SHT30;58277;47.316;18.908;2022-08-05T07:53:35;29.62;36.35
70708;SHT30;58277;47.316;18.908;2022-08-05T07:56:12;30.17;36.02
70708;SHT30;58277;47.316;18.908;2022-08-05T07:58:55;30.20;36.53
70708;SHT30;58277;47.316;18.908;2022-08-05T08:01:20;29.99;36.30
70708;SHT30;58277;47.316;18.908;2022-08-05T08:03:51;29.99;37.14
70708;SHT30;58277;47.316;18.908;2022-08-05T08:06:13;29.96;36.53
70708;SHT30;58277;47.316;18.908;2022-08-05T08:08:37;29.79;37.46
70708;SHT30;58277;47.316;18.908;2022-08-05T08:11:01;29.86;37.55
70708;SHT30;58277;47.316;18.908;2022-08-05T08:13:23;30.12;38.37
70708;SHT30;58277;47.316;18.908;2022-08-05T08:15:50;30.18;37.18
70708;SHT30;58277;47.316;18.908;2022-08-05T08:18:33;30.38;37.38
70708;SHT30;58277;47.316;18.908;2022-08-05T08:20:58;30.47;35.86
70708;SHT30;58277;47.316;18.908;2022-08-05T08:23:24;30.67;36.00
70708;SHT30;58277;47.316;18.908;2022-08-05T08:26:07;30.72;37.55
70708;SHT30;58277;47.316;18.908;2022-08-05T08:28:31;30.78;36.67
70708;SHT30;58277;47.316;18.908;2022-08-05T08:30:58;30.76;35.65
70708;SHT30;58277;47.316;18.908;2022-08-05T08:33:24;30.72;35.02
70708;SHT30;58277;47.316;18.908;2022-08-05T08:35:49;30.63;34.99
70708;SHT30;58277;47.316;18.908;2022-08-05T08:38:19;30.78;35.40
70708;SHT30;58277;47.316;18.908;2022-08-05T08:40:58;31.11;34.95
70708;SHT30;58277;47.316;18.908;2022-08-05T08:43:22;31.13;33.70
70708;SHT30;58277;47.316;18.908;2022-08-05T08:46:05;31.08;33.87
70708;SHT30;58277;47.316;18.908;2022-08-05T08:48:39;30.91;34.24
70708;SHT30;58277;47.316;18.908;2022-08-05T08:51:26;30.82;34.43
70708;SHT30;58277;47.316;18.908;2022-08-05T08:54:09;30.98;33.60
70708;SHT30;58277;47.316;18.908;2022-08-05T08:56:37;31.09;34.19
70708;SHT30;58277;47.316;18.908;2022-08-05T08:59:10;31.03;33.61
70708;SHT30;58277;47.316;18.908;2022-08-05T09:01:41;31.22;33.34
70708;SHT30;58277;47.316;18.908;2022-08-05T09:04:19;31.33;33.52
70708;SHT30;58277;47.316;18.908;2022-08-05T09:06:42;31.26;32.84
70708;SHT30;58277;47.316;18.908;2022-08-05T09:09:11;31.49;32.30
70708;SHT30;58277;47.316;18.908;2022-08-05T09:11:34;31.37;33.98
70708;SHT30;58277;47.316;18.908;2022-08-05T09:14:17;31.46;33.48
70708;SHT30;58277;47.316;18.908;2022-08-05T09:17:01;31.66;31.89
70708;SHT30;58277;47.316;18.908;2022-08-05T09:19:25;31.81;33.65
70708;SHT30;58277;47.316;18.908;2022-08-05T09:21:49;31.67;32.56
70708;SHT30;58277;47.316;18.908;2022-08-05T09:24:32;31.82;31.69
70708;SHT30;58277;47.316;18.908;2022-08-05T09:26:57;31.74;32.53
70708;SHT30;58277;47.316;18.908;2022-08-05T09:29:36;31.91;31.55
70708;SHT30;58277;47.316;18.908;2022-08-05T09:32:09;31.84;32.09
70708;SHT30;58277;47.316;18.908;2022-08-05T09:34:54;32.19;31.80
70708;SHT30;58277;47.316;18.908;2022-08-05T09:37:26;32.16;31.75
70708;SHT30;58277;47.316;18.908;2022-08-05T09:40:37;32.42;29.44
70708;SHT30;58277;47.316;18.908;2022-08-05T09:43:32;32.40;30.21
70708;SHT30;58277;47.316;18.908;2022-08-05T09:46:05;32.37;30.69
70708;SHT30;58277;47.316;18.908;2022-08-05T09:48:36;32.53;29.31
70708;SHT30;58277;47.316;18.908;2022-08-05T09:51:02;32.87;29.42
70708;SHT30;58277;47.316;18.908;2022-08-05T09:53:48;33.10;29.05
70708;SHT30;58277;47.316;18.908;2022-08-05T09:56:29;33.12;29.65
70708;SHT30;58277;47.316;18.908;2022-08-05T09:59:00;32.87;29.48
70708;SHT30;58277;47.316;18.908;2022-08-05T10:01:26;32.76;29.41
70708;SHT30;58277;47.316;18.908;2022-08-05T10:06:25;33.00;29.10
70708;SHT30;58277;47.316;18.908;2022-08-05T10:08:54;33.04;29.11
70708;SHT30;58277;47.316;18.908;2022-08-05T10:11:17;33.06;29.65
70708;SHT30;58277;47.316;18.908;2022-08-05T10:13:40;33.18;29.09
70708;SHT30;58277;47.316;18.908;2022-08-05T10:16:31;33.34;29.73
70708;SHT30;58277;47.316;18.908;2022-08-05T10:19:00;33.32;28.30
70708;SHT30;58277;47.316;18.908;2022-08-05T10:21:29;33.31;28.77
70708;SHT30;58277;47.316;18.908;2022-08-05T10:24:01;33.25;28.68
70708;SHT30;58277;47.316;18.908;2022-08-05T10:26:32;33.32;29.74
70708;SHT30;58277;47.316;18.908;2022-08-05T10:28:55;33.24;29.54
70708;SHT30;58277;47.316;18.908;2022-08-05T10:31:18;33.37;27.93
70708;SHT30;58277;47.316;18.908;2022-08-05T10:34:01;33.28;29.09
70708;SHT30;58277;47.316;18.908;2022-08-05T10:36:25;33.48;28.28
70708;SHT30;58277;47.316;18.908;2022-08-05T10:38:48;33.68;27.60
70708;SHT30;58277;47.316;18.908;2022-08-05T10:41:34;33.56;27.93
70708;SHT30;58277;47.316;18.908;2022-08-05T10:44:10;33.54;28.36
70708;SHT30;58277;47.316;18.908;2022-08-05T10:49:16;33.77;27.69
70708;SHT30;58277;47.316;18.908;2022-08-05T10:51:50;33.70;27.74
70708;SHT30;58277;47.316;18.908;2022-08-05T10:54:23;33.66;27.77
70708;SHT30;58277;47.316;18.908;2022-08-05T10:56:55;33.59;28.29
70708;SHT30;58277;47.316;18.908;2022-08-05T10:59:24;33.49;29.22
70708;SHT30;58277;47.316;18.908;2022-08-05T11:02:09;33.54;28.17
70708;SHT30;58277;47.316;18.908;2022-08-05T11:04:53;33.59;27.55
70708;SHT30;58277;47.316;18.908;2022-08-05T11:07:16;33.76;28.93
70708;SHT30;58277;47.316;18.908;2022-08-05T11:09:54;33.85;26.72
70708;SHT30;58277;47.316;18.908;2022-08-05T11:17:53;33.86;27.96
70708;SHT30;58277;47.316;18.908;2022-08-05T11:20:44;33.89;27.36
70708;SHT30;58277;47.316;18.908;2022-08-05T11:23:42;33.73;26.68
70708;SHT30;58277;47.316;18.908;2022-08-05T11:26:27;33.77;27.21
70708;SHT30;58277;47.316;18.908;2022-08-05T11:28:54;33.65;27.14
70708;SHT30;58277;47.316;18.908;2022-08-05T11:31:25;33.73;27.93
70708;SHT30;58277;47.316;18.908;2022-08-05T11:34:12;33.96;27.11
70708;SHT30;58277;47.316;18.908;2022-08-05T11:39:07;33.93;27.71
70708;SHT30;58277;47.316;18.908;2022-08-05T11:41:31;34.10;27.40
70708;SHT30;58277;47.316;18.908;2022-08-05T11:44:19;34.31;28.20
70708;SHT30;58277;47.316;18.908;2022-08-05T11:47:02;34.64;26.99
70708;SHT30;58277;47.316;18.908;2022-08-05T11:49:33;34.85;25.68
70708;SHT30;58277;47.316;18.908;2022-08-05T11:51:56;34.99;25.92
70708;SHT30;58277;47.316;18.908;2022-08-05T11:56:56;34.44;26.62
70708;SHT30;58277;47.316;18.908;2022-08-05T11:59:24;34.14;27.36
70708;SHT30;58277;47.316;18.908;2022-08-05T12:02:04;34.02;26.55
70708;SHT30;58277;47.316;18.908;2022-08-05T12:04:46;34.24;26.16
70708;SHT30;58277;47.316;18.908;2022-08-05T12:07:21;34.48;27.01
70708;SHT30;58277;47.316;18.908;2022-08-05T12:10:06;34.59;26.40
70708;SHT30;58277;47.316;18.908;2022-08-05T12:12:32;34.88;26.31
70708;SHT30;58277;47.316;18.908;2022-08-05T12:14:55;34.89;25.35
70708;SHT30;58277;47.316;18.908;2022-08-05T12:17:18;34.95;25.72
70708;SHT30;58277;47.316;18.908;2022-08-05T12:20:05;34.98;27.18
70708;SHT30;58277;47.316;18.908;2022-08-05T12:22:48;35.19;26.66
70708;SHT30;58277;47.316;18.908;2022-08-05T12:25:13;35.25;26.25
70708;SHT30;58277;47.316;18.908;2022-08-05T12:27:38;35.27;25.23
70708;SHT30;58277;47.316;18.908;2022-08-05T12:30:14;35.25;25.58
70708;SHT30;58277;47.316;18.908;2022-08-05T12:32:45;34.86;25.81
70708;SHT30;58277;47.316;18.908;2022-08-05T12:35:12;34.52;26.08
70708;SHT30;58277;47.316;18.908;2022-08-05T12:37:44;34.64;26.24
70708;SHT30;58277;47.316;18.908;2022-08-05T12:40:10;34.81;26.36
70708;SHT30;58277;47.316;18.908;2022-08-05T12:42:48;34.79;27.11
70708;SHT30;58277;47.316;18.908;2022-08-05T12:45:11;34.58;26.57
70708;SHT30;58277;47.316;18.908;2022-08-05T12:47:37;34.68;26.96
70708;SHT30;58277;47.316;18.908;2022-08-05T12:50:20;34.92;26.77
70708;SHT30;58277;47.316;18.908;2022-08-05T12:52:54;34.89;25.72
70708;SHT30;58277;47.316;18.908;2022-08-05T12:55:22;34.82;26.17
70708;SHT30;58277;47.316;18.908;2022-08-05T12:57:47;34.79;26.22
70708;SHT30;58277;47.316;18.908;2022-08-05T13:00:30;35.00;25.84
70708;SHT30;58277;47.316;18.908;2022-08-05T13:03:14;34.95;26.32
70708;SHT30;58277;47.316;18.908;2022-08-05T13:05:38;34.79;26.20
70708;SHT30;58277;47.316;18.908;2022-08-05T13:08:03;34.67;25.84
70708;SHT30;58277;47.316;18.908;2022-08-05T13:10:31;34.58;26.65
70708;SHT30;58277;47.316;18.908;2022-08-05T13:12:55;34.51;26.49
70708;SHT30;58277;47.316;18.908;2022-08-05T13:15:20;34.52;26.24
70708;SHT30;58277;47.316;18.908;2022-08-05T13:17:57;34.79;25.85
70708;SHT30;58277;47.316;18.908;2022-08-05T13:20:20;35.06;25.06
70708;SHT30;58277;47.316;18.908;2022-08-05T13:22:50;34.96;25.66
70708;SHT30;58277;47.316;18.908;2022-08-05T13:25:14;34.65;25.30
70708;SHT30;58277;47.316;18.908;2022-08-05T13:27:51;34.47;25.21
70708;SHT30;58277;47.316;18.908;2022-08-05T13:30:16;34.41;26.19
70708;SHT30;58277;47.316;18.908;2022-08-05T13:32:58;34.51;26.80
70708;SHT30;58277;47.316;18.908;2022-08-05T13:35:23;34.55;25.68
70708;SHT30;58277;47.316;18.908;2022-08-05T13:38:05;34.79;24.83
70708;SHT30;58277;47.316;18.908;2022-08-05T13:40:28;34.71;25.29
70708;SHT30;58277;47.316;18.908;2022-08-05T13:43:11;34.69;25.33
70708;SHT30;58277;47.316;18.908;2022-08-05T13:45:43;34.55;24.91
70708;SHT30;58277;47.316;18.908;2022-08-05T13:48:08;34.68;25.47
70708;SHT30;58277;47.316;18.908;2022-08-05T13:50:51;34.59;26.22
70708;SHT30;58277;47.316;18.908;2022-08-05T13:53:14;34.65;26.21
70708;SHT30;58277;47.316;18.908;2022-08-05T13:55:37;34.71;25.86
70708;SHT30;58277;47.316;18.908;2022-08-05T13:58:10;34.75;26.14
70708;SHT30;58277;47.316;18.908;2022-08-05T14:00:33;34.85;26.88
70708;SHT30;58277;47.316;18.908;2022-08-05T14:02:57;34.72;26.57
70708;SHT30;58277;47.316;18.908;2022-08-05T14:05:22;34.72;25.42
70708;SHT30;58277;47.316;18.908;2022-08-05T14:08:05;34.79;25.88
70708;SHT30;58277;47.316;18.908;2022-08-05T14:10:41;34.78;25.91
70708;SHT30;58277;47.316;18.908;2022-08-05T14:13:05;34.64;24.94
70708;SHT30;58277;47.316;18.908;2022-08-05T14:15:30;34.72;24.73
70708;SHT30;58277;47.316;18.908;2022-08-05T14:18:13;34.75;26.09
70708;SHT30;58277;47.316;18.908;2022-08-05T14:20:40;34.92;24.56
70708;SHT30;58277;47.316;18.908;2022-08-05T14:23:08;35.06;25.17
70708;SHT30;58277;47.316;18.908;2022-08-05T14:25:31;34.91;25.30
70708;SHT30;58277;47.316;18.908;2022-08-05T14:27:54;34.84;25.82
70708;SHT30;58277;47.316;18.908;2022-08-05T14:30:17;34.71;26.72
70708;SHT30;58277;47.316;18.908;2022-08-05T14:32:43;34.89;26.09
70708;SHT30;58277;47.316;18.908;2022-08-05T14:35:06;34.72;26.55
70708;SHT30;58277;47.316;18.908;2022-08-05T14:37:32;34.81;25.60
70708;SHT30;58277;47.316;18.908;2022-08-05T14:40:12;34.75;25.91
70708;SHT30;58277;47.316;18.908;2022-08-05T14:42:38;34.68;24.99
70708;SHT30;58277;47.316;18.908;2022-08-05T14:45:03;34.74;24.95
70708;SHT30;58277;47.316;18.908;2022-08-05T14:47:30;34.85;24.59
70708;SHT30;58277;47.316;18.908;2022-08-05T14:50:13;34.89;25.07
70708;SHT30;58277;47.316;18.908;2022-08-05T14:52:40;34.86;25.19
70708;SHT30;58277;47.316;18.908;2022-08-05T14:55:15;34.85;25.82
70708;SHT30;58277;47.316;18.908;2022-08-05T14:57:40;34.81;25.45
70708;SHT30;58277;47.316;18.908;2022-08-05T15:00:17;34.58;25.41
70708;SHT30;58277;47.316;18.908;2022-08-05T15:02:41;34.57;24.83
70708;SHT30;58277;47.316;18.908;2022-08-05T15:05:04;34.74;25.58
70708;SHT30;58277;47.316;18.908;2022-08-05T15:07:35;34.88;24.90
70708;SHT30;58277;47.316;18.908;2022-08-05T15:10:17;34.72;24.66
70708;SHT30;58277;47.316;18.908;2022-08-05T15:12:50;34.74;24.76
70708;SHT30;58277;47.316;18.908;2022-08-05T15:15:25;34.81;24.83
70708;SHT30;58277;47.316;18.908;2022-08-05T15:18:08;34.72;25.10
70708;SHT30;58277;47.316;18.908;2022-08-05T15:20:35;34.68;25.63
70708;SHT30;58277;47.316;18.908;2022-08-05T15:23:06;34.51;26.00
70708;SHT30;58277;47.316;18.908;2022-08-05T15:25:30;34.49;24.79
70708;SHT30;58277;47.316;18.908;2022-08-05T15:28:13;34.49;24.64
70708;SHT30;58277;47.316;18.908;2022-08-05T15:30:37;34.57;25.42
70708;SHT30;58277;47.316;18.908;2022-08-05T15:33:02;34.57;26.24
70708;SHT30;58277;47.316;18.908;2022-08-05T15:35:25;34.48;26.15
70708;SHT30;58277;47.316;18.908;2022-08-05T15:37:57;34.41;26.02
70708;SHT30;58277;47.316;18.908;2022-08-05T15:40:40;34.38;26.30
70708;SHT30;58277;47.316;18.908;2022-08-05T15:43:22;34.45;26.09
70708;SHT30;58277;47.316;18.908;2022-08-05T15:45:45;34.23;26.61
70708;SHT30;58277;47.316;18.908;2022-08-05T15:48:09;34.13;26.73
70708;SHT30;58277;47.316;18.908;2022-08-05T15:50:35;34.17;24.89
70708;SHT30;58277;47.316;18.908;2022-08-05T15:52:59;34.31;25.43
70708;SHT30;58277;47.316;18.908;2022-08-05T15:55:26;34.17;25.38
70708;SHT30;58277;47.316;18.908;2022-08-05T15:58:09;34.40;25.99
70708;SHT30;58277;47.316;18.908;2022-08-05T16:00:38;34.19;25.67
70708;SHT30;58277;47.316;18.908;2022-08-05T16:03:24;33.92;26.24
70708;SHT30;58277;47.316;18.908;2022-08-05T16:05:49;33.80;25.94
70708;SHT30;58277;47.316;18.908;2022-08-05T16:08:17;33.85;25.32